sensor_id;sensor_type;location;lat;lon;timestamp;pressure;altitude;pressure_sealevel;temperature;humidity
75668;BME280;64266;48.798;44.756;2023-02-01T00:00:11;101327.13;;;-0.64;55.72
75668;BME280;64266;48.798;44.756;2023-02-01T00:05:14;101312.09;;;-0.50;55.63
75668;BME280;64266;48.798;44.756;2023-02-01T00:10:17;101314.53;;;-0.59;56.28
75668;BME280;64266;48.798;44.756;2023-02-01T00:15:20;101307.50;;;-0.68;54.96
75668;BME280;64266;48.798;44.756;2023-02-01T00:20:26;101287.69;;;-0.89;55.66
75668;BME280;64266;48.798;44.756;2023-02-01T00:25:28;101282.16;;;-1.26;55.45
75668;BME280;64266;48.798;44.756;2023-02-01T00:30:31;101309.00;;;-1.05;55.94
75668;BME280;64266;48.798;44.756;2023-02-01T00:35:35;101272.72;;;-1.27;56.78
75668;BME280;64266;48.798;44.756;2023-02-01T00:40:38;101285.09;;;-1.10;56.22
75668;BME280;64266;48.798;44.756;2023-02-01T00:45:40;101276.47;;;-1.11;57.16
75668;BME280;64266;48.798;44.756;2023-02-01T00:50:43;101271.06;;;-1.28;55.23
75668;BME280;64266;48.798;44.756;2023-02-01T00:55:47;101282.97;;;-1.26;55.75
75668;BME280;64266;48.798;44.756;2023-02-01T01:01:14;101278.59;;;-1.25;55.75
75668;BME280;64266;48.798;44.756;2023-02-01T01:06:20;101266.41;;;-1.25;57.11
75668;BME280;64266;48.798;44.756;2023-02-01T01:11:25;101259.97;;;-1.30;55.92
75668;BME280;64266;48.798;44.756;2023-02-01T01:16:31;101278.84;;;-1.28;55.13
75668;BME280;64266;48.798;44.756;2023-02-01T01:21:34;101280.31;;;-1.15;56.27
75668;BME280;64266;48.798;44.756;2023-02-01T01:26:37;101252.19;;;-1.51;55.10
75668;BME280;64266;48.798;44.756;2023-02-01T01:31:40;101253.44;;;-1.45;55.40
75668;BME280;64266;48.798;44.756;2023-02-01T01:36:43;101282.28;;;-1.28;55.66
75668;BME280;64266;48.798;44.756;2023-02-01T01:41:45;101281.09;;;-1.24;56.35
75668;BME280;64266;48.798;44.756;2023-02-01T01:46:57;101276.91;;;-1.36;55.91
75668;BME280;64266;48.798;44.756;2023-02-01T01:52:02;101275.09;;;-1.35;55.30
75668;BME280;64266;48.798;44.756;2023-02-01T01:57:12;101277.72;;;-1.35;55.90
75668;BME280;64266;48.798;44.756;2023-02-01T02:02:17;101276.13;;;-1.27;54.85
75668;BME280;64266;48.798;44.756;2023-02-01T02:07:25;101262.25;;;-1.37;55.42
75668;BME280;64266;48.798;44.756;2023-02-01T02:12:30;101279.56;;;-1.26;54.48
75668;BME280;64266;48.798;44.756;2023-02-01T02:44:44;101246.88;;;-1.81;55.77
75668;BME280;64266;48.798;44.756;2023-02-01T02:55:54;101272.47;;;-1.45;56.38
75668;BME280;64266;48.798;44.756;2023-02-01T03:01:18;101272.38;;;-1.34;55.51
75668;BME280;64266;48.798;44.756;2023-02-01T03:06:39;101268.44;;;-1.28;56.46
75668;BME280;64266;48.798;44.756;2023-02-01T03:11:45;101280.31;;;-1.15;55.06
75668;BME280;64266;48.798;44.756;2023-02-01T03:17:15;101291.31;;;-1.01;55.51
75668;BME280;64266;48.798;44.756;2023-02-01T03:22:23;101260.50;;;-1.06;55.31
75668;BME280;64266;48.798;44.756;2023-02-01T03:32:36;101284.38;;;-0.91;54.14
75668;BME280;64266;48.798;44.756;2023-02-01T03:38:38;101296.19;;;-0.87;55.32
75668;BME280;64266;48.798;44.756;2023-02-01T03:49:11;101274.00;;;-0.82;54.08
75668;BME280;64266;48.798;44.756;2023-02-01T03:54:17;101289.69;;;-0.72;54.00
75668;BME280;64266;48.798;44.756;2023-02-01T03:59:20;101273.75;;;-0.79;54.72
75668;BME280;64266;48.798;44.756;2023-02-01T04:04:24;101305.09;;;-0.50;54.16
75668;BME280;64266;48.798;44.756;2023-02-01T04:09:30;101296.16;;;-0.57;54.45
75668;BME280;64266;48.798;44.756;2023-02-01T04:14:33;101308.16;;;-0.35;55.98
75668;BME280;64266;48.798;44.756;2023-02-01T04:19:35;101303.25;;;-0.29;54.92
75668;BME280;64266;48.798;44.756;2023-02-01T04:24:39;101299.69;;;-0.18;54.81
75668;BME280;64266;48.798;44.756;2023-02-01T04:29:42;101304.34;;;-0.12;54.81
75668;BME280;64266;48.798;44.756;2023-02-01T04:34:45;101325.94;;;-0.01;54.98
75668;BME280;64266;48.798;44.756;2023-02-01T04:39:48;101279.53;;;-0.16;55.45
75668;BME280;64266;48.798;44.756;2023-02-01T04:44:52;101328.81;;;0.06;55.02
75668;BME280;64266;48.798;44.756;2023-02-01T04:49:56;101302.66;;;-0.42;56.15
75668;BME280;64266;48.798;44.756;2023-02-01T04:54:59;101324.84;;;-0.47;56.01
75668;BME280;64266;48.798;44.756;2023-02-01T05:00:05;101333.41;;;-0.26;56.13
75668;BME280;64266;48.798;44.756;2023-02-01T05:05:27;101309.41;;;-0.30;55.97
75668;BME280;64266;48.798;44.756;2023-02-01T05:10:30;101330.84;;;-0.17;53.90
75668;BME280;64266;48.798;44.756;2023-02-01T05:15:34;101339.16;;;-0.32;55.90
75668;BME280;64266;48.798;44.756;2023-02-01T05:20:37;101350.78;;;-0.36;56.30
75668;BME280;64266;48.798;44.756;2023-02-01T05:25:40;101334.84;;;-0.43;56.52
75668;BME280;64266;48.798;44.756;2023-02-01T05:30:43;101342.22;;;-0.58;56.99
75668;BME280;64266;48.798;44.756;2023-02-01T05:35:46;101364.03;;;-0.59;56.68
75668;BME280;64266;48.798;44.756;2023-02-01T05:40:49;101344.81;;;-0.58;58.07
75668;BME280;64266;48.798;44.756;2023-02-01T05:45:52;101352.44;;;-0.35;59.57
75668;BME280;64266;48.798;44.756;2023-02-01T05:50:56;101370.94;;;0.02;57.57
75668;BME280;64266;48.798;44.756;2023-02-01T05:55:59;101381.69;;;0.27;56.84
75668;BME280;64266;48.798;44.756;2023-02-01T06:01:03;101383.16;;;0.11;57.47
75668;BME280;64266;48.798;44.756;2023-02-01T06:06:06;101391.31;;;0.46;56.55
75668;BME280;64266;48.798;44.756;2023-02-01T06:11:09;101373.88;;;0.66;56.77
75668;BME280;64266;48.798;44.756;2023-02-01T06:16:22;101404.63;;;0.81;55.75
75668;BME280;64266;48.798;44.756;2023-02-01T06:21:25;101373.41;;;0.89;56.31
75668;BME280;64266;48.798;44.756;2023-02-01T06:26:28;101396.63;;;0.92;56.31
75668;BME280;64266;48.798;44.756;2023-02-01T06:31:32;101397.59;;;1.11;53.96
75668;BME280;64266;48.798;44.756;2023-02-01T06:36:35;101396.59;;;1.21;55.17
75668;BME280;64266;48.798;44.756;2023-02-01T06:41:38;101403.47;;;1.22;54.74
75668;BME280;64266;48.798;44.756;2023-02-01T06:46:41;101393.00;;;1.41;54.68
75668;BME280;64266;48.798;44.756;2023-02-01T06:51:44;101399.81;;;1.52;53.52
75668;BME280;64266;48.798;44.756;2023-02-01T06:56:47;101385.66;;;1.45;53.97
75668;BME280;64266;48.798;44.756;2023-02-01T07:01:51;101377.13;;;1.52;53.22
75668;BME280;64266;48.798;44.756;2023-02-01T07:06:54;101387.97;;;1.57;54.27
75668;BME280;64266;48.798;44.756;2023-02-01T07:11:57;101367.34;;;1.54;54.78
75668;BME280;64266;48.798;44.756;2023-02-01T07:17:00;101406.19;;;2.04;53.94
75668;BME280;64266;48.798;44.756;2023-02-01T07:22:04;101379.16;;;1.86;52.75
75668;BME280;64266;48.798;44.756;2023-02-01T07:27:08;101390.66;;;2.20;53.42
75668;BME280;64266;48.798;44.756;2023-02-01T07:32:12;101389.34;;;2.34;51.45
75668;BME280;64266;48.798;44.756;2023-02-01T07:37:15;101396.50;;;2.49;51.98
75668;BME280;64266;48.798;44.756;2023-02-01T07:42:19;101405.66;;;2.63;51.23
75668;BME280;64266;48.798;44.756;2023-02-01T07:47:21;101381.56;;;2.59;51.34
75668;BME280;64266;48.798;44.756;2023-02-01T07:52:27;101401.31;;;2.71;50.95
75668;BME280;64266;48.798;44.756;2023-02-01T07:57:30;101384.88;;;2.61;50.97
75668;BME280;64266;48.798;44.756;2023-02-01T08:02:33;101389.34;;;2.51;51.42
75668;BME280;64266;48.798;44.756;2023-02-01T08:07:36;101394.72;;;2.85;52.13
75668;BME280;64266;48.798;44.756;2023-02-01T08:12:38;101388.06;;;2.73;51.65
75668;BME280;64266;48.798;44.756;2023-02-01T08:17:48;101386.00;;;3.02;50.95
75668;BME280;64266;48.798;44.756;2023-02-01T08:22:51;101364.75;;;3.05;51.83
75668;BME280;64266;48.798;44.756;2023-02-01T08:27:55;101346.41;;;3.05;50.72
75668;BME280;64266;48.798;44.756;2023-02-01T08:32:58;101366.25;;;3.42;51.51
75668;BME280;64266;48.798;44.756;2023-02-01T08:38:01;101369.38;;;3.71;50.12
75668;BME280;64266;48.798;44.756;2023-02-01T08:43:05;101339.47;;;3.56;49.74
75668;BME280;64266;48.798;44.756;2023-02-01T08:48:09;101341.66;;;3.68;50.18
75668;BME280;64266;48.798;44.756;2023-02-01T08:53:12;101350.94;;;3.55;49.11
75668;BME280;64266;48.798;44.756;2023-02-01T08:58:17;101353.50;;;3.80;50.55
75668;BME280;64266;48.798;44.756;2023-02-01T09:03:20;101315.78;;;3.81;50.31
75668;BME280;64266;48.798;44.756;2023-02-01T09:08:28;101356.50;;;3.94;50.57
75668;BME280;64266;48.798;44.756;2023-02-01T09:13:32;101344.03;;;3.88;51.08
75668;BME280;64266;48.798;44.756;2023-02-01T09:18:35;101325.66;;;3.88;49.69
75668;BME280;64266;48.798;44.756;2023-02-01T09:23:56;101332.47;;;3.64;50.86
75668;BME280;64266;48.798;44.756;2023-02-01T09:29:00;101321.38;;;3.45;51.98
75668;BME280;64266;48.798;44.756;2023-02-01T09:34:03;101315.47;;;3.35;52.37
75668;BME280;64266;48.798;44.756;2023-02-01T09:39:07;101318.63;;;3.54;53.44
75668;BME280;64266;48.798;44.756;2023-02-01T09:50:16;101304.63;;;3.71;52.88
75668;BME280;64266;48.798;44.756;2023-02-01T10:00:38;101285.63;;;3.77;52.33
75668;BME280;64266;48.798;44.756;2023-02-01T10:11:00;101263.66;;;3.78;51.29
75668;BME280;64266;48.798;44.756;2023-02-01T10:21:40;101283.78;;;3.70;52.43
75668;BME280;64266;48.798;44.756;2023-02-01T10:26:51;101273.41;;;3.52;54.44
75668;BME280;64266;48.798;44.756;2023-02-01T10:31:57;101275.00;;;3.87;54.78
75668;BME280;64266;48.798;44.756;2023-02-01T10:37:18;101280.25;;;4.03;54.27
75668;BME280;64266;48.798;44.756;2023-02-01T10:42:27;101268.97;;;4.03;53.20
75668;BME280;64266;48.798;44.756;2023-02-01T10:47:31;101265.84;;;3.99;52.82
75668;BME280;64266;48.798;44.756;2023-02-01T10:58:19;101226.91;;;3.78;55.78
75668;BME280;64266;48.798;44.756;2023-02-01T11:08:47;101261.72;;;4.13;55.90
75668;BME280;64266;48.798;44.756;2023-02-01T11:13:59;101272.75;;;4.24;54.28
75668;BME280;64266;48.798;44.756;2023-02-01T11:19:02;101288.19;;;4.27;53.09
75668;BME280;64266;48.798;44.756;2023-02-01T11:24:23;101276.00;;;4.34;53.64
75668;BME280;64266;48.798;44.756;2023-02-01T11:29:32;101271.75;;;4.58;53.31
75668;BME280;64266;48.798;44.756;2023-02-01T11:34:45;101285.06;;;4.48;52.12
75668;BME280;64266;48.798;44.756;2023-02-01T11:39:56;101268.31;;;4.41;52.10
75668;BME280;64266;48.798;44.756;2023-02-01T11:45:17;101265.66;;;4.49;52.61
75668;BME280;64266;48.798;44.756;2023-02-01T12:06:56;101253.72;;;4.30;51.67
75668;BME280;64266;48.798;44.756;2023-02-01T12:12:17;101281.44;;;4.33;52.39
75668;BME280;64266;48.798;44.756;2023-02-01T12:55:33;101240.56;;;4.38;50.63
75668;BME280;64266;48.798;44.756;2023-02-01T13:00:38;101234.34;;;4.31;50.86
75668;BME280;64266;48.798;44.756;2023-02-01T13:05:56;101225.50;;;4.32;50.36
75668;BME280;64266;48.798;44.756;2023-02-01T13:11:19;101257.50;;;4.52;51.98
75668;BME280;64266;48.798;44.756;2023-02-01T13:16:25;101264.38;;;4.45;50.25
75668;BME280;64266;48.798;44.756;2023-02-01T13:21:35;101254.38;;;4.24;51.15
75668;BME280;64266;48.798;44.756;2023-02-01T13:26:40;101264.84;;;4.16;51.74
75668;BME280;64266;48.798;44.756;2023-02-01T13:47:29;101231.34;;;3.70;53.90
75668;BME280;64266;48.798;44.756;2023-02-01T13:52:39;101291.06;;;3.92;53.75
75668;BME280;64266;48.798;44.756;2023-02-01T13:57:43;101254.09;;;3.61;55.09
75668;BME280;64266;48.798;44.756;2023-02-01T14:02:49;101277.56;;;3.71;55.38
75668;BME280;64266;48.798;44.756;2023-02-01T14:18:59;101217.47;;;2.86;55.24
75668;BME280;64266;48.798;44.756;2023-02-01T14:24:24;101290.09;;;3.43;54.90
75668;BME280;64266;48.798;44.756;2023-02-01T14:29:36;101268.97;;;3.11;53.83
75668;BME280;64266;48.798;44.756;2023-02-01T14:34:51;101296.78;;;3.38;54.91
75668;BME280;64266;48.798;44.756;2023-02-01T14:55:43;101351.63;;;3.05;54.63
75668;BME280;64266;48.798;44.756;2023-02-01T15:00:58;101288.16;;;2.60;54.25
75668;BME280;64266;48.798;44.756;2023-02-01T15:06:01;101345.09;;;3.01;53.13
75668;BME280;64266;48.798;44.756;2023-02-01T15:11:14;101347.63;;;2.67;53.23
75668;BME280;64266;48.798;44.756;2023-02-01T15:16:18;101361.84;;;2.91;52.75
75668;BME280;64266;48.798;44.756;2023-02-01T15:21:23;101363.59;;;3.08;50.44
75668;BME280;64266;48.798;44.756;2023-02-01T15:26:32;101260.78;;;2.54;51.22
75668;BME280;64266;48.798;44.756;2023-02-01T15:31:42;101355.19;;;2.96;51.37
75668;BME280;64266;48.798;44.756;2023-02-01T15:36:46;101222.56;;;2.18;51.25
75668;BME280;64266;48.798;44.756;2023-02-01T15:42:19;101318.47;;;2.88;50.67
75668;BME280;64266;48.798;44.756;2023-02-01T15:47:25;101252.16;;;2.62;50.02
75668;BME280;64266;48.798;44.756;2023-02-01T15:52:36;101260.22;;;2.68;49.47
75668;BME280;64266;48.798;44.756;2023-02-01T15:57:41;101315.78;;;3.06;49.70
75668;BME280;64266;48.798;44.756;2023-02-01T16:08:20;101284.44;;;2.45;50.18
75668;BME280;64266;48.798;44.756;2023-02-01T16:13:23;101340.16;;;2.81;50.92
75668;BME280;64266;48.798;44.756;2023-02-01T16:18:26;101351.72;;;2.96;50.41
75668;BME280;64266;48.798;44.756;2023-02-01T16:23:29;101367.44;;;2.96;50.15
75668;BME280;64266;48.798;44.756;2023-02-01T16:28:33;101363.28;;;3.11;50.85
75668;BME280;64266;48.798;44.756;2023-02-01T16:33:36;101347.72;;;2.84;50.56
75668;BME280;64266;48.798;44.756;2023-02-01T16:38:39;101372.75;;;3.04;50.67
75668;BME280;64266;48.798;44.756;2023-02-01T16:43:43;101331.34;;;2.82;50.19
75668;BME280;64266;48.798;44.756;2023-02-01T16:48:51;101360.91;;;2.92;49.28
75668;BME280;64266;48.798;44.756;2023-02-01T16:53:54;101369.97;;;3.05;50.62
75668;BME280;64266;48.798;44.756;2023-02-01T16:58:58;101372.63;;;2.88;49.64
75668;BME280;64266;48.798;44.756;2023-02-01T17:04:01;101364.28;;;2.66;50.32
75668;BME280;64266;48.798;44.756;2023-02-01T17:09:05;101385.84;;;2.60;51.42
75668;BME280;64266;48.798;44.756;2023-02-01T17:19:20;101371.69;;;2.53;50.47
75668;BME280;64266;48.798;44.756;2023-02-01T17:24:29;101307.31;;;2.25;50.29
75668;BME280;64266;48.798;44.756;2023-02-01T17:29:49;101386.19;;;2.65;49.46
75668;BME280;64266;48.798;44.756;2023-02-01T17:34:52;101399.69;;;2.70;49.64
75668;BME280;64266;48.798;44.756;2023-02-01T17:39:55;101354.75;;;2.40;49.10
75668;BME280;64266;48.798;44.756;2023-02-01T17:45:10;101365.69;;;2.43;49.58
75668;BME280;64266;48.798;44.756;2023-02-01T17:50:16;101365.09;;;2.49;50.49
75668;BME280;64266;48.798;44.756;2023-02-01T17:55:20;101347.03;;;2.38;49.65
75668;BME280;64266;48.798;44.756;2023-02-01T18:00:24;101354.28;;;2.27;49.55
75668;BME280;64266;48.798;44.756;2023-02-01T18:05:41;101366.97;;;2.22;50.35
75668;BME280;64266;48.798;44.756;2023-02-01T18:10:50;101374.31;;;2.36;49.67
75668;BME280;64266;48.798;44.756;2023-02-01T18:15:53;101371.09;;;2.42;50.47
75668;BME280;64266;48.798;44.756;2023-02-01T18:20:57;101375.50;;;2.59;50.09
75668;BME280;64266;48.798;44.756;2023-02-01T18:26:00;101359.25;;;2.55;49.54
75668;BME280;64266;48.798;44.756;2023-02-01T18:31:04;101362.28;;;2.60;49.06
75668;BME280;64266;48.798;44.756;2023-02-01T18:36:11;101363.84;;;2.53;49.38
75668;BME280;64266;48.798;44.756;2023-02-01T18:41:16;101344.94;;;2.24;50.66
75668;BME280;64266;48.798;44.756;2023-02-01T18:46:19;101357.13;;;2.51;49.72
75668;BME280;64266;48.798;44.756;2023-02-01T18:51:24;101330.13;;;2.15;49.43
75668;BME280;64266;48.798;44.756;2023-02-01T18:56:26;101360.03;;;2.30;49.80
75668;BME280;64266;48.798;44.756;2023-02-01T19:01:29;101358.81;;;2.25;50.65
75668;BME280;64266;48.798;44.756;2023-02-01T19:06:32;101360.09;;;2.38;50.22
75668;BME280;64266;48.798;44.756;2023-02-01T19:11:35;101359.94;;;2.22;50.51
75668;BME280;64266;48.798;44.756;2023-02-01T19:16:38;101365.56;;;2.27;51.36
75668;BME280;64266;48.798;44.756;2023-02-01T19:21:41;101363.50;;;2.31;51.84
75668;BME280;64266;48.798;44.756;2023-02-01T19:26:43;101333.78;;;2.04;50.56
75668;BME280;64266;48.798;44.756;2023-02-01T19:31:45;101366.66;;;2.25;50.52
75668;BME280;64266;48.798;44.756;2023-02-01T19:36:48;101371.69;;;2.18;51.39
75668;BME280;64266;48.798;44.756;2023-02-01T19:41:52;101380.56;;;2.07;50.31
75668;BME280;64266;48.798;44.756;2023-02-01T19:46:54;101361.47;;;1.97;51.05
75668;BME280;64266;48.798;44.756;2023-02-01T19:51:57;101364.63;;;2.01;51.57
75668;BME280;64266;48.798;44.756;2023-02-01T19:57:00;101399.66;;;2.17;50.97
75668;BME280;64266;48.798;44.756;2023-02-01T20:02:03;101394.69;;;1.97;51.25
75668;BME280;64266;48.798;44.756;2023-02-01T20:07:05;101368.91;;;1.75;51.24
75668;BME280;64266;48.798;44.756;2023-02-01T20:12:09;101356.88;;;1.54;51.31
75668;BME280;64266;48.798;44.756;2023-02-01T20:17:16;101396.47;;;1.69;52.24
75668;BME280;64266;48.798;44.756;2023-02-01T20:22:19;101391.63;;;1.74;52.37
75668;BME280;64266;48.798;44.756;2023-02-01T20:27:22;101382.06;;;1.83;52.02
75668;BME280;64266;48.798;44.756;2023-02-01T20:32:24;101376.22;;;1.71;52.08
75668;BME280;64266;48.798;44.756;2023-02-01T20:37:26;101376.88;;;2.00;51.58
75668;BME280;64266;48.798;44.756;2023-02-01T20:42:29;101370.13;;;1.80;50.95
75668;BME280;64266;48.798;44.756;2023-02-01T20:47:31;101348.53;;;1.78;51.14
75668;BME280;64266;48.798;44.756;2023-02-01T20:52:34;101361.91;;;2.20;50.75
75668;BME280;64266;48.798;44.756;2023-02-01T20:57:36;101407.44;;;2.27;50.74
75668;BME280;64266;48.798;44.756;2023-02-01T21:02:39;101415.16;;;2.01;51.23
75668;BME280;64266;48.798;44.756;2023-02-01T21:07:43;101384.88;;;1.72;51.95
75668;BME280;64266;48.798;44.756;2023-02-01T21:12:46;101388.41;;;1.80;52.73
75668;BME280;64266;48.798;44.756;2023-02-01T21:17:56;101409.66;;;1.95;52.17
75668;BME280;64266;48.798;44.756;2023-02-01T21:23:01;101430.19;;;1.99;52.15
75668;BME280;64266;48.798;44.756;2023-02-01T21:28:04;101378.91;;;1.79;52.56
75668;BME280;64266;48.798;44.756;2023-02-01T21:33:07;101415.97;;;2.02;52.58
75668;BME280;64266;48.798;44.756;2023-02-01T21:38:09;101421.34;;;2.00;51.80
75668;BME280;64266;48.798;44.756;2023-02-01T21:43:13;101424.06;;;2.08;52.88
75668;BME280;64266;48.798;44.756;2023-02-01T21:48:15;101432.34;;;2.04;52.17
75668;BME280;64266;48.798;44.756;2023-02-01T21:53:18;101423.94;;;2.00;50.56
75668;BME280;64266;48.798;44.756;2023-02-01T21:58:21;101386.00;;;1.69;52.44
75668;BME280;64266;48.798;44.756;2023-02-01T22:03:24;101412.19;;;1.87;52.22
75668;BME280;64266;48.798;44.756;2023-02-01T22:08:27;101414.91;;;1.58;52.72
75668;BME280;64266;48.798;44.756;2023-02-01T22:13:30;101401.69;;;1.32;52.57
75668;BME280;64266;48.798;44.756;2023-02-01T22:18:34;101435.53;;;1.61;53.32
75668;BME280;64266;48.798;44.756;2023-02-01T22:23:37;101421.16;;;1.47;54.06
75668;BME280;64266;48.798;44.756;2023-02-01T22:28:39;101420.50;;;1.73;53.72
75668;BME280;64266;48.798;44.756;2023-02-01T22:33:44;101429.44;;;1.80;53.36
75668;BME280;64266;48.798;44.756;2023-02-01T22:38:48;101400.00;;;1.78;52.41
75668;BME280;64266;48.798;44.756;2023-02-01T22:43:51;101400.19;;;1.57;52.87
75668;BME280;64266;48.798;44.756;2023-02-01T22:48:54;101420.16;;;1.58;53.19
75668;BME280;64266;48.798;44.756;2023-02-01T22:53:58;101430.28;;;1.71;53.45
75668;BME280;64266;48.798;44.756;2023-02-01T22:59:06;101390.28;;;1.60;53.42
75668;BME280;64266;48.798;44.756;2023-02-01T23:04:13;101422.41;;;1.80;51.29
75668;BME280;64266;48.798;44.756;2023-02-01T23:09:21;101432.88;;;1.80;52.80
75668;BME280;64266;48.798;44.756;2023-02-01T23:14:24;101422.25;;;1.82;52.84
75668;BME280;64266;48.798;44.756;2023-02-01T23:19:27;101435.31;;;1.82;52.58
75668;BME280;64266;48.798;44.756;2023-02-01T23:24:30;101391.97;;;1.52;52.65
75668;BME280;64266;48.798;44.756;2023-02-01T23:29:33;101380.44;;;1.45;52.82
75668;BME280;64266;48.798;44.756;2023-02-01T23:34:36;101408.78;;;1.77;52.83
75668;BME280;64266;48.798;44.756;2023-02-01T23:39:39;101405.81;;;1.72;53.33
75668;BME280;64266;48.798;44.756;2023-02-01T23:44:41;101412.69;;;2.00;52.71
75668;BME280;64266;48.798;44.756;2023-02-01T23:49:45;101384.59;;;1.75;52.68
75668;BME280;64266;48.798;44.756;2023-02-01T23:54:47;101401.75;;;1.87;53.54
75668;BME280;64266;48.798;44.756;2023-02-01T23:59:50;101402.66;;;1.68;53.25
